Time;durP1;ratioP1;P1;durP2;ratioP2;P2;SDS_P1;SDS_P2;PMS_P1;PMS_P2;Temp;Humidity;BMP_temperature;BMP_pressure;BME280_temperature;BME280_humidity;BME280_pressure;Samples;Min_cycle;Max_cycle;Signal;HPM_P1;HPM_P2
2024/02/15 00:02:05;;;;;;;5.10;4.60;;;;;;;;;;5058670;28;20049;-66
2024/02/15 00:04:33;;;;;;;5.25;4.75;;;;;;;;;;5067252;28;20056;-66
2024/02/15 00:07:01;;;;;;;7.50;5.20;;;;;;;;;;5056788;28;20171;-66
2024/02/15 00:09:28;;;;;;;5.07;4.57;;;;;;;;;;5053731;28;20057;-66
2024/02/15 00:11:55;;;;;;;5.82;5.10;;;;;;;;;;5051976;28;20061;-66
2024/02/15 00:14:22;;;;;;;5.43;4.70;;;;;;;;;;5056579;28;20045;-65
2024/02/15 00:16:49;;;;;;;5.90;5.10;;;;;;;;;;5068106;28;20049;-66
2024/02/15 00:19:17;;;;;;;8.10;4.97;;;;;;;;;;5070934;28;20056;-65
2024/02/15 00:21:44;;;;;;;5.82;4.97;;;;;;;;;;5072848;28;20056;-66
2024/02/15 00:24:12;;;;;;;6.40;5.38;;;;;;;;;;5075073;28;20517;-66
2024/02/15 00:26:39;;;;;;;6.57;5.10;;;;;;;;;;5071400;28;20048;-66
2024/02/15 00:29:06;;;;;;;5.97;5.18;;;;;;;;;;5072242;28;20056;-66
2024/02/15 00:31:32;;;;;;;6.57;5.85;;;;;;;;;;5055266;28;20511;-66
2024/02/15 00:34:02;;;;;;;5.95;4.63;;;;;;;;;;5057942;28;20044;-66
2024/02/15 00:36:29;;;;;;;6.35;5.13;;;;;;;;;;5057783;28;20053;-66
2024/02/15 00:38:56;;;;;;;6.57;4.80;;;;;;;;;;5055073;28;20055;-66
2024/02/15 00:41:24;;;;;;;6.38;5.00;;;;;;;;;;5054173;28;20053;-66
2024/02/15 00:43:51;;;;;;;5.80;5.25;;;;;;;;;;5054760;28;20056;-66
2024/02/15 00:46:18;;;;;;;6.43;5.28;;;;;;;;;;5058790;28;20056;-66
2024/02/15 00:48:45;;;;;;;8.95;5.47;;;;;;;;;;5054963;28;20065;-66
2024/02/15 00:51:11;;;;;;;6.75;5.57;;;;;;;;;;5057568;28;20044;-66
2024/02/15 00:53:38;;;;;;;5.75;4.88;;;;;;;;;;5074932;28;20064;-66
2024/02/15 00:56:05;;;;;;;9.18;5.30;;;;;;;;;;5064353;28;20408;-66
2024/02/15 00:58:33;;;;;;;6.25;4.70;;;;;;;;;;5054584;28;20072;-66
2024/02/15 01:01:00;;;;;;;5.63;4.57;;;;;;;;;;5056435;28;20057;-64
2024/02/15 01:03:27;;;;;;;5.43;4.88;;;;;;;;;;5054340;28;20136;-64
2024/02/15 01:05:54;;;;;;;5.38;4.40;;;;;;;;;;5055246;28;20471;-65
2024/02/15 01:08:21;;;;;;;4.30;3.90;;;;;;;;;;5074340;28;20060;-64
2024/02/15 01:10:47;;;;;;;4.90;4.40;;;;;;;;;;5073102;28;20048;-64
2024/02/15 01:13:14;;;;;;;4.75;3.95;;;;;;;;;;5073967;28;20049;-65
2024/02/15 01:15:43;;;;;;;4.57;3.90;;;;;;;;;;5070642;28;20115;-65
2024/02/15 01:18:10;;;;;;;5.32;3.78;;;;;;;;;;5074196;28;20063;-65
2024/02/15 01:20:37;;;;;;;4.63;4.00;;;;;;;;;;5066349;28;20049;-65
2024/02/15 01:23:04;;;;;;;6.63;4.38;;;;;;;;;;5053873;28;20052;-65
2024/02/15 01:25:31;;;;;;;5.35;4.30;;;;;;;;;;5053030;28;20064;-63
2024/02/15 01:27:58;;;;;;;6.10;4.78;;;;;;;;;;5053809;28;20053;-64
2024/02/15 01:30:25;;;;;;;6.30;4.97;;;;;;;;;;5056244;28;20048;-64
2024/02/15 01:32:53;;;;;;;6.18;5.10;;;;;;;;;;5059431;28;20049;-64
2024/02/15 01:35:20;;;;;;;8.55;5.50;;;;;;;;;;5064281;28;20048;-64
2024/02/15 01:37:47;;;;;;;6.30;4.75;;;;;;;;;;5073895;28;20053;-64
2024/02/15 01:40:13;;;;;;;6.50;5.22;;;;;;;;;;5062229;28;20064;-64
2024/02/15 01:42:40;;;;;;;5.78;5.10;;;;;;;;;;5054140;28;20064;-64
2024/02/15 01:45:09;;;;;;;6.32;4.75;;;;;;;;;;5052901;28;20052;-64
2024/02/15 01:47:37;;;;;;;7.82;4.95;;;;;;;;;;5060217;28;20068;-65
2024/02/15 01:50:05;;;;;;;5.93;5.15;;;;;;;;;;5053728;28;20053;-64
2024/02/15 01:52:32;;;;;;;6.30;4.87;;;;;;;;;;5052925;28;20056;-65
2024/02/15 01:54:59;;;;;;;6.65;4.82;;;;;;;;;;5053682;28;20491;-65
2024/02/15 01:57:27;;;;;;;7.85;5.65;;;;;;;;;;5061643;28;20368;-65
2024/02/15 01:59:53;;;;;;;8.23;6.30;;;;;;;;;;5073747;28;20064;-65
2024/02/15 02:02:21;;;;;;;8.30;6.13;;;;;;;;;;5064898;28;20052;-64
2024/02/15 02:04:48;;;;;;;7.88;5.97;;;;;;;;;;5053754;28;20484;-65
2024/02/15 02:07:16;;;;;;;6.22;5.63;;;;;;;;;;5059805;28;20053;-65
2024/02/15 02:09:44;;;;;;;7.63;6.03;;;;;;;;;;5053462;28;20052;-64
2024/02/15 02:12:11;;;;;;;9.32;6.70;;;;;;;;;;5052797;28;20049;-64
2024/02/15 02:14:39;;;;;;;7.28;6.43;;;;;;;;;;5053244;28;20431;-65
2024/02/15 02:17:13;;;;;;;8.75;6.50;;;;;;;;;;5055730;28;20139;-65
2024/02/15 02:19:40;;;;;;;8.48;6.82;;;;;;;;;;5073450;28;20053;-65
2024/02/15 02:22:09;;;;;;;8.55;6.93;;;;;;;;;;5068191;28;20055;-65
2024/02/15 02:24:41;;;;;;;9.05;7.57;;;;;;;;;;5054383;28;20057;-65
2024/02/15 02:27:11;;;;;;;8.77;7.65;;;;;;;;;;5057725;28;20452;-64
2024/02/15 02:29:43;;;;;;;10.98;8.52;;;;;;;;;;5073267;28;20059;-64
2024/02/15 02:32:09;;;;;;;10.00;7.82;;;;;;;;;;5067554;28;20052;-65
2024/02/15 02:34:36;;;;;;;11.32;8.90;;;;;;;;;;5052936;28;20053;-64
2024/02/15 02:37:05;;;;;;;12.40;9.25;;;;;;;;;;5053429;28;20064;-66
2024/02/15 02:39:32;;;;;;;12.07;9.95;;;;;;;;;;5069800;28;20048;-64
2024/02/15 02:41:58;;;;;;;14.32;11.10;;;;;;;;;;5072940;28;20059;-65
2024/02/15 02:44:27;;;;;;;14.82;11.02;;;;;;;;;;5071765;28;20075;-65
2024/02/15 02:46:53;;;;;;;13.43;11.85;;;;;;;;;;5072717;28;20067;-65
2024/02/15 02:49:20;;;;;;;16.42;11.65;;;;;;;;;;5071642;28;20064;-65
2024/02/15 02:51:47;;;;;;;15.60;12.30;;;;;;;;;;5072080;28;20368;-64
2024/02/15 02:54:15;;;;;;;14.23;12.73;;;;;;;;;;5061132;28;20056;-65
2024/02/15 02:56:43;;;;;;;18.83;12.55;;;;;;;;;;5072827;28;20467;-65
2024/02/15 02:59:10;;;;;;;17.27;13.10;;;;;;;;;;5055929;28;20057;-65
2024/02/15 03:01:39;;;;;;;15.43;12.43;;;;;;;;;;5052518;28;20049;-64
2024/02/15 03:04:06;;;;;;;14.68;12.13;;;;;;;;;;5061190;28;20051;-64
2024/02/15 03:06:33;;;;;;;17.63;12.73;;;;;;;;;;5072487;28;20142;-65
2024/02/15 03:09:00;;;;;;;14.73;12.80;;;;;;;;;;5064576;28;21476;-64
2024/02/15 03:11:27;;;;;;;15.32;12.32;;;;;;;;;;5067972;28;20052;-64
2024/02/15 03:13:53;;;;;;;16.63;11.75;;;;;;;;;;5072532;28;20487;-64
2024/02/15 03:16:24;;;;;;;14.95;11.73;;;;;;;;;;5071348;28;20470;-65
2024/02/15 03:18:53;;;;;;;17.65;12.48;;;;;;;;;;5072321;28;20052;-64
2024/02/15 03:21:20;;;;;;;13.30;11.32;;;;;;;;;;5061310;28;20484;-65
2024/02/15 03:23:47;;;;;;;18.20;11.98;;;;;;;;;;5051720;28;20060;-64
2024/02/15 03:26:14;;;;;;;16.30;12.77;;;;;;;;;;5067241;28;20059;-64
2024/02/15 03:28:41;;;;;;;15.13;12.30;;;;;;;;;;5072441;28;20059;-65
2024/02/15 03:31:08;;;;;;;15.93;12.90;;;;;;;;;;5056752;28;20057;-64
2024/02/15 03:33:35;;;;;;;17.52;14.20;;;;;;;;;;5052012;28;20049;-64
2024/02/15 03:36:03;;;;;;;21.48;13.00;;;;;;;;;;5051430;28;20059;-65
2024/02/15 03:38:31;;;;;;;20.05;13.55;;;;;;;;;;5054015;28;20060;-65
2024/02/15 03:40:58;;;;;;;19.08;15.80;;;;;;;;;;5059072;28;20053;-64
2024/02/15 03:43:24;;;;;;;21.60;14.90;;;;;;;;;;5056319;28;20049;-64
2024/02/15 03:45:52;;;;;;;21.25;15.50;;;;;;;;;;5055288;28;20068;-64
2024/02/15 03:48:18;;;;;;;24.38;15.65;;;;;;;;;;5060996;28;20044;-64
2024/02/15 03:50:46;;;;;;;20.30;15.43;;;;;;;;;;5069183;28;20048;-65
2024/02/15 03:53:14;;;;;;;22.58;16.27;;;;;;;;;;5056123;28;20068;-65
2024/02/15 03:55:42;;;;;;;18.08;14.73;;;;;;;;;;5074134;28;20399;-64
2024/02/15 03:58:10;;;;;;;19.23;14.65;;;;;;;;;;5075982;28;20056;-65
2024/02/15 04:00:38;;;;;;;21.27;14.93;;;;;;;;;;5060536;28;20052;-64
2024/02/15 04:03:05;;;;;;;19.20;13.73;;;;;;;;;;5069767;28;20056;-65
2024/02/15 04:05:32;;;;;;;15.95;13.00;;;;;;;;;;5075885;28;20399;-65
2024/02/15 04:08:02;;;;;;;15.63;13.23;;;;;;;;;;5074887;28;20486;-65
2024/02/15 04:10:28;;;;;;;;;;;;;;;;;;5061444;28;20056;-65
2024/02/15 04:12:58;;;;;;;16.98;12.40;;;;;;;;;;5055864;28;19921;-64
2024/02/15 04:15:24;;;;;;;16.20;12.75;;;;;;;;;;5054920;28;20111;-65
2024/02/15 04:17:55;;;;;;;17.02;12.48;;;;;;;;;;5055894;28;20048;-65
2024/02/15 04:20:22;;;;;;;14.73;11.30;;;;;;;;;;5055352;28;20044;-64
2024/02/15 04:22:50;;;;;;;15.73;12.18;;;;;;;;;;5055744;28;20057;-65
2024/02/15 04:25:18;;;;;;;14.32;10.63;;;;;;;;;;5055840;28;20064;-64
2024/02/15 04:27:46;;;;;;;10.88;9.52;;;;;;;;;;5055808;28;20057;-65
2024/02/15 04:30:15;;;;;;;17.33;10.05;;;;;;;;;;5054629;28;20056;-64
2024/02/15 04:32:42;;;;;;;13.70;9.20;;;;;;;;;;5055625;28;20049;-64
2024/02/15 04:35:09;;;;;;;12.32;9.10;;;;;;;;;;5054598;28;20053;-64
2024/02/15 04:37:37;;;;;;;12.40;8.75;;;;;;;;;;5055107;28;20052;-64
2024/02/15 04:40:08;;;;;;;9.90;7.22;;;;;;;;;;5058052;28;20304;-64
2024/02/15 04:42:37;;;;;;;10.77;7.07;;;;;;;;;;5055609;28;20052;-64
2024/02/15 04:45:05;;;;;;;11.07;7.43;;;;;;;;;;5054290;28;20060;-63
2024/02/15 04:47:33;;;;;;;10.32;7.60;;;;;;;;;;5053329;28;20056;-64
2024/02/15 04:50:00;;;;;;;8.75;7.68;;;;;;;;;;5070362;28;20052;-64
2024/02/15 04:52:27;;;;;;;6.75;5.88;;;;;;;;;;5072629;28;20483;-63
2024/02/15 04:54:55;;;;;;;10.25;7.18;;;;;;;;;;5057273;28;20061;-64
2024/02/15 04:57:21;;;;;;;9.70;6.03;;;;;;;;;;5055665;28;20053;-63
2024/02/15 04:59:49;;;;;;;7.95;5.10;;;;;;;;;;5054632;28;20064;-64
2024/02/15 05:02:17;;;;;;;7.35;5.35;;;;;;;;;;5054229;28;20053;-63
2024/02/15 05:04:45;;;;;;;7.75;5.28;;;;;;;;;;5054601;28;20133;-64
2024/02/15 05:07:15;;;;;;;7.43;5.03;;;;;;;;;;5059394;28;20048;-63
2024/02/15 05:09:42;;;;;;;6.63;4.75;;;;;;;;;;5074617;28;20059;-63
2024/02/15 05:12:08;;;;;;;8.75;5.47;;;;;;;;;;5062286;28;20083;-64
2024/02/15 05:14:36;;;;;;;7.45;5.00;;;;;;;;;;5054001;28;20053;-63
2024/02/15 05:17:04;;;;;;;8.55;5.35;;;;;;;;;;5053378;28;20388;-63
2024/02/15 05:19:31;;;;;;;7.90;4.40;;;;;;;;;;5054125;28;20496;-64
2024/02/15 05:22:00;;;;;;;7.15;3.75;;;;;;;;;;5066815;28;20052;-63
2024/02/15 05:24:28;;;;;;;5.35;3.50;;;;;;;;;;5074528;28;20388;-63
2024/02/15 05:26:55;;;;;;;4.70;3.40;;;;;;;;;;5064930;28;20049;-63
2024/02/15 05:29:23;;;;;;;5.13;3.35;;;;;;;;;;5058607;28;20441;-63
2024/02/15 05:31:51;;;;;;;5.32;3.03;;;;;;;;;;5054381;28;20056;-63
2024/02/15 05:34:18;;;;;;;6.07;2.67;;;;;;;;;;5054020;28;20053;-63
2024/02/15 05:36:45;;;;;;;6.65;3.42;;;;;;;;;;5054065;28;20057;-63
2024/02/15 05:39:14;;;;;;;6.75;2.97;;;;;;;;;;5054117;28;20053;-63
2024/02/15 05:41:41;;;;;;;4.18;2.95;;;;;;;;;;5054156;28;20415;-63
2024/02/15 05:44:09;;;;;;;6.20;3.15;;;;;;;;;;5054531;28;20067;-63
2024/02/15 05:46:37;;;;;;;6.20;2.95;;;;;;;;;;5062922;28;20053;-63
2024/02/15 05:49:04;;;;;;;6.22;3.00;;;;;;;;;;5053928;28;20048;-63
2024/02/15 05:51:33;;;;;;;5.07;2.55;;;;;;;;;;5053940;28;20053;-63
2024/02/15 05:54:00;;;;;;;6.53;2.60;;;;;;;;;;5053863;28;20052;-63
2024/02/15 05:56:29;;;;;;;5.03;2.30;;;;;;;;;;5053501;28;20507;-63
2024/02/15 05:58:55;;;;;;;3.45;2.67;;;;;;;;;;5053804;28;20428;-64
2024/02/15 06:01:23;;;;;;;7.20;3.15;;;;;;;;;;5053327;28;20052;-63
2024/02/15 06:03:54;;;;;;;5.68;2.70;;;;;;;;;;5065507;28;20053;-63
2024/02/15 06:06:21;;;;;;;6.10;3.03;;;;;;;;;;5073479;28;20056;-63
2024/02/15 06:08:48;;;;;;;4.53;2.53;;;;;;;;;;5073005;28;20053;-63
2024/02/15 06:11:20;;;;;;;5.78;2.63;;;;;;;;;;5068005;28;20256;-63
2024/02/15 06:13:48;;;;;;;5.97;2.65;;;;;;;;;;5062173;28;20162;-64
2024/02/15 06:16:14;;;;;;;6.65;2.70;;;;;;;;;;5055323;28;20049;-64
2024/02/15 06:18:41;;;;;;;4.60;2.40;;;;;;;;;;5055976;28;20049;-63
2024/02/15 06:21:08;;;;;;;4.97;2.70;;;;;;;;;;5060346;28;20056;-63
2024/02/15 06:23:35;;;;;;;6.13;2.63;;;;;;;;;;5063569;28;20052;-63
2024/02/15 06:26:02;;;;;;;6.18;2.35;;;;;;;;;;5071298;28;20078;-63
2024/02/15 06:39:45;;;;;;;5.95;2.70;;;;;;;;;;5036441;28;20052;-47
2024/02/15 06:42:15;;;;;;;5.07;2.80;;;;;;;;;;5053186;28;20475;-49
2024/02/15 06:44:42;;;;;;;6.18;2.63;;;;;;;;;;5052750;28;20487;-49
2024/02/15 06:47:10;;;;;;;7.80;2.92;;;;;;;;;;5063116;28;20049;-69
2024/02/15 06:49:39;;;;;;;7.30;3.25;;;;;;;;;;5067206;28;20063;-69
2024/02/15 06:52:06;;;;;;;4.50;2.57;;;;;;;;;;5071621;28;20506;-69
2024/02/15 06:54:34;;;;;;;6.45;2.50;;;;;;;;;;5072039;28;20053;-69
2024/02/15 06:57:02;;;;;;;5.35;2.85;;;;;;;;;;5072114;28;20419;-69
2024/02/15 06:59:28;;;;;;;6.60;2.92;;;;;;;;;;5069368;28;20065;-69
2024/02/15 07:01:55;;;;;;;7.80;3.00;;;;;;;;;;5057405;28;20488;-69
2024/02/15 07:04:25;;;;;;;6.47;2.75;;;;;;;;;;5053611;28;20056;-68
2024/02/15 07:06:54;;;;;;;6.03;2.75;;;;;;;;;;5051478;28;20053;-67
2024/02/15 07:09:22;;;;;;;9.38;3.08;;;;;;;;;;5052202;28;20499;-68
2024/02/15 07:11:49;;;;;;;8.05;2.63;;;;;;;;;;5051556;28;20049;-68
2024/02/15 07:14:17;;;;;;;6.57;2.92;;;;;;;;;;5051070;28;20151;-67
2024/02/15 07:16:45;;;;;;;6.35;3.20;;;;;;;;;;5052208;28;20048;-68
2024/02/15 07:19:12;;;;;;;7.20;3.08;;;;;;;;;;5052511;28;20059;-68
2024/02/15 07:21:40;;;;;;;6.00;3.30;;;;;;;;;;5052153;28;20483;-68
2024/02/15 07:24:07;;;;;;;6.07;3.13;;;;;;;;;;5052195;28;20049;-68
2024/02/15 07:26:35;;;;;;;7.80;2.80;;;;;;;;;;5052439;28;20061;-67
2024/02/15 07:29:02;;;;;;;5.60;2.90;;;;;;;;;;5068196;28;20061;-67
2024/02/15 07:31:29;;;;;;;8.18;3.33;;;;;;;;;;5052161;28;20063;-68
2024/02/15 07:33:57;;;;;;;8.48;2.95;;;;;;;;;;5052552;28;20057;-67
2024/02/15 07:36:24;;;;;;;7.25;2.92;;;;;;;;;;5052604;28;20057;-68
2024/02/15 07:38:53;;;;;;;6.90;2.90;;;;;;;;;;5052175;28;20067;-68
2024/02/15 07:41:22;;;;;;;5.97;2.60;;;;;;;;;;5052473;28;20399;-68
2024/02/15 07:43:49;;;;;;;6.75;2.95;;;;;;;;;;5052351;28;20066;-67
2024/02/15 07:46:17;;;;;;;8.73;3.15;;;;;;;;;;5052775;28;20068;-68
2024/02/15 07:48:45;;;;;;;5.93;3.03;;;;;;;;;;5060702;28;20049;-68
2024/02/15 07:51:12;;;;;;;7.15;3.08;;;;;;;;;;5072248;28;20399;-69
2024/02/15 07:53:40;;;;;;;6.18;2.50;;;;;;;;;;5072392;28;20438;-69
2024/02/15 07:56:08;;;;;;;7.28;2.60;;;;;;;;;;5072151;28;20380;-69
2024/02/15 07:58:35;;;;;;;7.10;2.70;;;;;;;;;;5071251;28;20405;-68
2024/02/15 08:01:01;;;;;;;7.70;3.20;;;;;;;;;;5064858;28;20487;-68
2024/02/15 08:03:29;;;;;;;9.55;2.78;;;;;;;;;;5072342;28;20057;-69
2024/02/15 08:05:56;;;;;;;9.57;2.92;;;;;;;;;;5072241;28;20049;-68
2024/02/15 08:08:23;;;;;;;6.85;2.78;;;;;;;;;;5052922;28;20476;-68
2024/02/15 08:10:51;;;;;;;5.43;2.45;;;;;;;;;;5051663;28;20064;-68
2024/02/15 08:13:22;;;;;;;6.20;2.65;;;;;;;;;;5052068;28;20060;-68
2024/02/15 08:15:52;;;;;;;8.57;2.40;;;;;;;;;;5052130;28;20052;-68
2024/02/15 08:18:20;;;;;;;5.82;2.78;;;;;;;;;;5051877;28;20044;-68
2024/02/15 08:20:46;;;;;;;12.88;3.00;;;;;;;;;;5052087;28;20515;-68
2024/02/15 08:23:13;;;;;;;17.23;3.90;;;;;;;;;;5052086;28;20064;-68
2024/02/15 08:25:41;;;;;;;18.73;4.60;;;;;;;;;;5055451;28;20072;-68
2024/02/15 08:28:08;;;;;;;9.25;3.70;;;;;;;;;;5055873;28;20045;-68
2024/02/15 08:30:37;;;;;;;13.77;4.10;;;;;;;;;;5055357;28;20045;-68
2024/02/15 08:33:05;;;;;;;10.75;4.22;;;;;;;;;;5055186;28;20048;-69
2024/02/15 08:35:31;;;;;;;12.70;4.88;;;;;;;;;;5055465;28;20049;-69
2024/02/15 08:37:58;;;;;;;8.90;4.30;;;;;;;;;;5054901;28;20053;-68
2024/02/15 08:40:26;;;;;;;7.82;4.38;;;;;;;;;;5055224;28;20060;-68
2024/02/15 08:42:52;;;;;;;36.22;6.50;;;;;;;;;;5055641;28;20419;-68
2024/02/15 08:45:19;;;;;;;15.75;6.85;;;;;;;;;;5057057;28;20060;-69
2024/02/15 08:47:49;;;;;;;16.10;5.15;;;;;;;;;;5074945;28;20045;-69
2024/02/15 08:50:17;;;;;;;11.80;4.75;;;;;;;;;;5055274;28;20053;-69
2024/02/15 08:52:44;;;;;;;8.82;5.15;;;;;;;;;;5055346;28;20179;-69
2024/02/15 08:55:14;;;;;;;10.88;3.65;;;;;;;;;;5054900;28;20057;-70
2024/02/15 08:57:41;;;;;;;9.25;4.38;;;;;;;;;;5055151;28;20048;-69
2024/02/15 09:00:13;;;;;;;7.88;4.10;;;;;;;;;;5054879;28;20057;-69
2024/02/15 09:02:40;;;;;;;11.10;3.92;;;;;;;;;;5073988;28;20415;-70
2024/02/15 09:05:08;;;;;;;8.32;3.30;;;;;;;;;;5074779;28;20056;-69
2024/02/15 09:07:36;;;;;;;10.27;3.50;;;;;;;;;;5075222;28;20052;-68
2024/02/15 09:10:03;;;;;;;10.35;3.85;;;;;;;;;;5064345;28;20056;-69
2024/02/15 09:12:31;;;;;;;7.53;3.50;;;;;;;;;;5054783;28;20385;-69
2024/02/15 09:14:58;;;;;;;9.40;3.33;;;;;;;;;;5054512;28;20057;-68
2024/02/15 09:17:26;;;;;;;7.80;3.00;;;;;;;;;;5054513;28;20056;-69
2024/02/15 09:19:54;;;;;;;9.00;3.30;;;;;;;;;;5054832;28;20061;-69
2024/02/15 09:22:22;;;;;;;7.03;3.13;;;;;;;;;;5054516;28;20056;-69
2024/02/15 09:24:49;;;;;;;7.35;3.13;;;;;;;;;;5054548;28;20056;-69
2024/02/15 09:27:16;;;;;;;5.60;3.08;;;;;;;;;;5054962;28;20059;-69
2024/02/15 09:29:43;;;;;;;5.45;2.20;;;;;;;;;;5054495;28;20053;-69
2024/02/15 09:32:10;;;;;;;5.55;2.50;;;;;;;;;;5055441;28;20057;-69
2024/02/15 09:34:36;;;;;;;5.28;2.53;;;;;;;;;;5054330;28;20064;-69
2024/02/15 09:37:04;;;;;;;6.30;2.70;;;;;;;;;;5053866;28;20049;-69
2024/02/15 09:39:33;;;;;;;8.85;3.97;;;;;;;;;;5054370;28;20049;-69
2024/02/15 09:41:59;;;;;;;6.68;3.20;;;;;;;;;;5054382;28;20064;-68
2024/02/15 09:44:28;;;;;;;7.30;2.75;;;;;;;;;;5054287;28;20053;-68
2024/02/15 09:47:01;;;;;;;6.15;2.75;;;;;;;;;;5054817;28;20428;-69
2024/02/15 09:49:29;;;;;;;5.88;2.35;;;;;;;;;;5058492;28;20510;-68
2024/02/15 09:51:57;;;;;;;6.22;2.60;;;;;;;;;;5053933;28;20076;-69
2024/02/15 09:54:24;;;;;;;6.07;2.67;;;;;;;;;;5054042;28;20064;-68
2024/02/15 09:56:53;;;;;;;7.30;2.42;;;;;;;;;;5054186;28;20049;-68
2024/02/15 09:59:20;;;;;;;3.80;2.20;;;;;;;;;;5054188;28;20419;-68
2024/02/15 10:01:48;;;;;;;5.82;2.58;;;;;;;;;;5054197;28;20071;-68
2024/02/15 10:04:15;;;;;;;6.55;2.20;;;;;;;;;;5053792;28;20049;-68
2024/02/15 10:06:42;;;;;;;4.72;2.40;;;;;;;;;;5053690;28;20048;-68
2024/02/15 10:09:24;;;;;;;7.50;2.03;;;;;;;;;;5053279;28;20059;-68
2024/02/15 10:11:57;;;;;;;5.43;2.38;;;;;;;;;;5053099;28;20056;-68
2024/02/15 10:14:26;;;;;;;5.80;1.90;;;;;;;;;;5053909;28;20057;-68
2024/02/15 10:16:53;;;;;;;3.60;1.95;;;;;;;;;;5054377;28;20064;-68
2024/02/15 10:19:24;;;;;;;4.95;2.00;;;;;;;;;;5053573;28;20071;-68
2024/02/15 10:21:56;;;;;;;5.45;1.90;;;;;;;;;;5053768;28;20053;-68
2024/02/15 10:24:24;;;;;;;4.63;1.98;;;;;;;;;;5053590;28;20063;-68
2024/02/15 10:26:51;;;;;;;3.85;1.80;;;;;;;;;;5053288;28;20057;-68
2024/02/15 10:29:20;;;;;;;4.97;1.70;;;;;;;;;;5053309;28;20049;-67
2024/02/15 10:31:53;;;;;;;6.10;1.88;;;;;;;;;;5054215;28;20056;-67
2024/02/15 10:34:21;;;;;;;5.70;2.28;;;;;;;;;;5053367;28;20057;-67
2024/02/15 10:36:47;;;;;;;5.28;2.00;;;;;;;;;;5053084;28;20484;-67
2024/02/15 10:39:19;;;;;;;6.72;2.22;;;;;;;;;;5052811;28;20048;-67
2024/02/15 10:41:47;;;;;;;5.07;1.58;;;;;;;;;;5053408;28;20048;-68
2024/02/15 10:44:16;;;;;;;6.80;2.10;;;;;;;;;;5053168;28;20060;-68
2024/02/15 10:46:44;;;;;;;4.88;1.80;;;;;;;;;;5053692;28;20399;-67
2024/02/15 10:49:11;;;;;;;4.93;2.10;;;;;;;;;;5064121;28;20045;-67
2024/02/15 10:51:42;;;;;;;3.97;1.90;;;;;;;;;;5072812;28;20056;-67
2024/02/15 10:54:13;;;;;;;4.85;1.67;;;;;;;;;;5072802;28;20518;-67
2024/02/15 10:56:44;;;;;;;4.93;1.63;;;;;;;;;;5072964;28;20055;-67
2024/02/15 10:59:13;;;;;;;6.93;2.20;;;;;;;;;;5072237;28;20071;-69
2024/02/15 11:01:43;;;;;;;5.35;1.85;;;;;;;;;;5064916;28;20056;-67
2024/02/15 11:04:15;;;;;;;5.00;1.65;;;;;;;;;;5052667;28;20061;-67
2024/02/15 11:06:43;;;;;;;4.90;1.73;;;;;;;;;;5052629;28;20075;-68
2024/02/15 11:09:11;;;;;;;4.05;1.50;;;;;;;;;;5052326;28;20052;-68
2024/02/15 11:11:38;;;;;;;4.38;1.92;;;;;;;;;;5052481;28;20053;-68
2024/02/15 11:14:23;;;;;;;4.68;1.92;;;;;;;;;;5052381;28;20056;-68
2024/02/15 11:16:51;;;;;;;4.55;1.60;;;;;;;;;;5060121;28;20064;-68
2024/02/15 11:19:32;;;;;;;3.22;1.42;;;;;;;;;;5072372;28;20049;-67
2024/02/15 11:22:03;;;;;;;3.90;1.73;;;;;;;;;;5072646;28;20056;-67
2024/02/15 11:24:32;;;;;;;3.13;1.42;;;;;;;;;;5072299;28;20056;-67
2024/02/15 11:27:02;;;;;;;3.55;1.48;;;;;;;;;;5072628;28;20056;-67
2024/02/15 11:29:47;;;;;;;3.80;1.65;;;;;;;;;;5072491;28;20056;-68
2024/02/15 11:32:34;;;;;;;4.90;1.50;;;;;;;;;;5061120;28;20053;-67
2024/02/15 11:35:10;;;;;;;5.07;1.90;;;;;;;;;;5052240;28;20388;-67
2024/02/15 11:38:03;;;;;;;3.55;1.77;;;;;;;;;;5052251;28;20049;-66
2024/02/15 11:40:50;;;;;;;3.67;1.50;;;;;;;;;;5051998;28;20060;-68
2024/02/15 11:43:33;;;;;;;5.97;1.92;;;;;;;;;;5051715;28;20053;-67
2024/02/15 11:46:02;;;;;;;4.28;1.60;;;;;;;;;;5051239;28;20495;-67
2024/02/15 11:48:30;;;;;;;4.32;1.80;;;;;;;;;;5057874;28;20510;-69
2024/02/15 11:50:56;;;;;;;4.18;1.70;;;;;;;;;;5071680;28;20049;-67
2024/02/15 11:53:25;;;;;;;6.88;1.45;;;;;;;;;;5071907;28;20049;-68
2024/02/15 11:56:00;;;;;;;4.40;1.60;;;;;;;;;;5071855;28;20484;-68
2024/02/15 11:58:41;;;;;;;4.13;1.33;;;;;;;;;;5072150;28;20079;-68
2024/02/15 12:20:25;;;;;;;4.57;1.45;;;;;;;;;;5061546;28;20049;-68
2024/02/15 12:22:52;;;;;;;3.70;1.45;;;;;;;;;;5063004;28;20044;-67
2024/02/15 12:25:22;;;;;;;4.50;1.73;;;;;;;;;;5075560;28;20056;-68
2024/02/15 12:27:53;;;;;;;3.13;1.65;;;;;;;;;;5062202;28;20053;-68
2024/02/15 12:30:21;;;;;;;4.30;1.50;;;;;;;;;;5055090;28;20068;-67
2024/02/15 12:32:49;;;;;;;5.53;1.70;;;;;;;;;;5063060;28;20059;-69
2024/02/15 12:35:19;;;;;;;4.85;1.58;;;;;;;;;;5075559;28;20059;-68
2024/02/15 12:37:46;;;;;;;;;;;;;;;;;;5076249;28;20057;-68
2024/02/15 12:40:15;;;;;;;5.03;1.67;;;;;;;;;;5065385;28;19920;-69
2024/02/15 12:42:42;;;;;;;;;;;;;;;;;;5055920;28;20053;-68
2024/02/15 12:45:17;;;;;;;5.45;1.70;;;;;;;;;;5055108;28;20307;-69
2024/02/15 12:47:44;;;;;;;5.90;1.73;;;;;;;;;;5062517;28;20044;-69
2024/02/15 12:50:14;;;;;;;3.67;1.70;;;;;;;;;;5055445;28;20079;-69
2024/02/15 12:52:43;;;;;;;3.70;1.50;;;;;;;;;;5055594;28;20061;-69
2024/02/15 12:55:14;;;;;;;3.15;1.30;;;;;;;;;;5055492;28;20053;-69
2024/02/15 12:57:44;;;;;;;4.30;1.55;;;;;;;;;;5055707;28;20049;-69
2024/02/15 13:00:17;;;;;;;5.18;1.30;;;;;;;;;;5055250;28;20053;-70
2024/02/15 13:02:45;;;;;;;2.95;1.40;;;;;;;;;;5060595;28;20048;-69
2024/02/15 13:05:11;;;;;;;4.07;1.58;;;;;;;;;;5074814;28;20053;-69
2024/02/15 13:07:38;;;;;;;3.42;1.42;;;;;;;;;;5075518;28;20479;-69
2024/02/15 13:10:06;;;;;;;3.88;1.45;;;;;;;;;;5074586;28;20044;-69
2024/02/15 13:12:35;;;;;;;3.80;1.20;;;;;;;;;;5074485;28;20058;-68
2024/02/15 13:15:04;;;;;;;3.55;1.17;;;;;;;;;;5074644;28;20048;-68
2024/02/15 13:17:33;;;;;;;3.17;1.40;;;;;;;;;;5072687;28;20056;-67
2024/02/15 13:20:04;;;;;;;4.00;1.23;;;;;;;;;;5071809;28;20502;-68
2024/02/15 13:22:32;;;;;;;3.45;1.35;;;;;;;;;;5074686;28;20048;-68
2024/02/15 13:24:58;;;;;;;3.28;1.33;;;;;;;;;;5074381;28;20052;-68
2024/02/15 13:27:26;;;;;;;2.78;1.33;;;;;;;;;;5074648;28;20059;-68
2024/02/15 13:29:53;;;;;;;3.60;1.58;;;;;;;;;;5065909;28;20053;-68
2024/02/15 13:32:21;;;;;;;4.55;1.60;;;;;;;;;;5054793;28;20403;-67
2024/02/15 13:34:51;;;;;;;3.35;1.38;;;;;;;;;;5054517;28;20420;-67
2024/02/15 13:37:20;;;;;;;3.88;1.33;;;;;;;;;;5060516;28;20048;-67
2024/02/15 13:39:47;;;;;;;3.63;1.50;;;;;;;;;;5074263;28;20399;-67
2024/02/15 13:42:14;;;;;;;2.92;1.30;;;;;;;;;;5074197;28;20057;-68
2024/02/15 13:44:41;;;;;;;3.25;1.73;;;;;;;;;;5074436;28;20061;-67
2024/02/15 13:47:08;;;;;;;4.78;1.40;;;;;;;;;;5074206;28;20044;-67
2024/02/15 13:49:35;;;;;;;4.07;1.40;;;;;;;;;;5055424;28;20072;-66
2024/02/15 13:52:03;;;;;;;2.40;1.20;;;;;;;;;;5054116;28;20072;-67
2024/02/15 13:54:32;;;;;;;5.13;1.45;;;;;;;;;;5053754;28;20098;-67
2024/02/15 13:56:59;;;;;;;4.40;1.88;;;;;;;;;;5054072;28;20496;-67
2024/02/15 13:59:28;;;;;;;5.40;1.45;;;;;;;;;;5053495;28;20049;-66
2024/02/15 14:01:55;;;;;;;4.72;1.55;;;;;;;;;;5053462;28;20052;-67
2024/02/15 14:04:22;;;;;;;4.43;1.50;;;;;;;;;;5053864;28;20057;-67
2024/02/15 14:06:49;;;;;;;6.10;1.50;;;;;;;;;;5053549;28;20057;-66
2024/02/15 14:09:18;;;;;;;3.50;1.60;;;;;;;;;;5053397;28;20060;-66
2024/02/15 14:11:45;;;;;;;2.35;1.40;;;;;;;;;;5053701;28;20525;-67
2024/02/15 14:14:11;;;;;;;5.32;1.60;;;;;;;;;;5053275;28;20056;-67
2024/02/15 14:16:39;;;;;;;3.97;1.50;;;;;;;;;;5053526;28;20079;-67
2024/02/15 14:19:06;;;;;;;4.15;1.70;;;;;;;;;;5062842;28;20059;-66
2024/02/15 14:21:38;;;;;;;3.88;1.50;;;;;;;;;;5064027;28;20052;-67
2024/02/15 14:24:08;;;;;;;3.53;1.40;;;;;;;;;;5053574;28;20064;-66
2024/02/15 14:26:36;;;;;;;3.38;1.60;;;;;;;;;;5053704;28;20506;-66
2024/02/15 14:29:03;;;;;;;4.25;1.52;;;;;;;;;;5052940;28;20057;-66
2024/02/15 14:34:13;;;;;;;3.53;1.55;;;;;;;;;;5040480;28;20049;-66
2024/02/15 14:36:42;;;;;;;3.35;1.23;;;;;;;;;;5053272;28;20442;-66
2024/02/15 14:39:09;;;;;;;7.05;1.77;;;;;;;;;;5053126;28;20060;-67
2024/02/15 14:41:38;;;;;;;3.75;1.40;;;;;;;;;;5053051;28;20060;-66
2024/02/15 14:44:05;;;;;;;4.20;1.60;;;;;;;;;;5053035;28;20057;-67
2024/02/15 14:46:34;;;;;;;4.55;1.55;;;;;;;;;;5053006;28;20083;-66
2024/02/15 14:49:01;;;;;;;3.15;1.45;;;;;;;;;;5053662;28;20053;-66
2024/02/15 14:51:29;;;;;;;3.42;1.60;;;;;;;;;;5052522;28;20449;-66
2024/02/15 14:53:55;;;;;;;6.50;1.70;;;;;;;;;;5052967;28;20053;-66
2024/02/15 14:56:22;;;;;;;4.68;1.70;;;;;;;;;;5052694;28;20060;-66
2024/02/15 14:58:51;;;;;;;3.00;1.20;;;;;;;;;;5052896;28;20060;-66
2024/02/15 15:01:19;;;;;;;4.60;2.03;;;;;;;;;;5052742;28;20060;-66
2024/02/15 15:03:54;;;;;;;4.35;1.40;;;;;;;;;;5052682;28;20048;-65
2024/02/15 15:14:36;;;;;;;4.13;1.27;;;;;;;;;;5058595;28;20049;-66
2024/02/15 15:17:04;;;;;;;4.10;1.50;;;;;;;;;;5052110;28;20071;-66
2024/02/15 15:19:31;;;;;;;3.85;1.45;;;;;;;;;;5065098;28;20048;-66
2024/02/15 15:21:58;;;;;;;3.65;1.23;;;;;;;;;;5072215;28;20044;-66
2024/02/15 15:24:24;;;;;;;3.97;1.50;;;;;;;;;;5072635;28;20052;-66
2024/02/15 15:26:52;;;;;;;3.17;1.25;;;;;;;;;;5071846;28;20063;-66
2024/02/15 15:29:18;;;;;;;3.25;1.38;;;;;;;;;;5072184;28;20053;-65